Kalamata, Greece
Current Conditions -  °F | °C
As of 3:20 PM on Tuesday 21 Oct 2014 (Local Time) from LGKL Reporting Station
Clear Clear  
Wind Chill: 73°   Ceiling: Unl
Heat Index: 73°   Visibility: 6mi
Dew Point: 43°   Wind: 6mph
Humidity: 33%   Direction: 190°S
Pressure: 29.91"   Gusts: NA
Location:  37.04°N, 22.11°E
Report Text: LGKL 211220Z 19005KT CAVOK 23/06 Q1013
Loading
Personal Weather Stations






























Interactive Weather Map
Tropical Storm Tracking
New forecast layout! Learn more

10-Day Weather Forecast

Advertisements
Track Severe Weather on mobile